JML101 LFBT-EDNY
Flight info
| Callsign | JML101 |
|---|---|
| Flight time | 1h 22m |
| Altitude | 40000 |
| Route | USAKU DCT SOTAK DCT TOZOT DCT MURRO T544 LSE/N0438F390 DCT BELUS/N0442F400 DCT OMASI N871 DITON T163 ZUE ZUE1F |
| Aircraft | B737/M-SDE2E3FGHIRWXY/LB1 |
Departure
| Time | 2026-04-20 19:29 |
|---|---|
| Airport | Tarbes-Lourdes-Pyrénées Airport (LFBT) |
Arrival
| Time | 2026-04-20 20:51 |
|---|---|
| Airport | Bodensee Airport Friedrichshafen (EDNY) |
| Time | Latitude | Longitude | Altitude | Speed | Heading |
|---|---|---|---|---|---|
| 2026-04-20 18:57 | 43.18297 | 0.00096 | 1203 ft | 0 kts | 298° |
| 2026-04-20 19:25 | 43.18304 | 0.00079 | 1203 ft | 4 kts | 298° |
| 2026-04-20 19:25 | 43.18333 | 0.00058 | 1202 ft | 6 kts | 1° |
| 2026-04-20 19:26 | 43.18374 | 0.00080 | 1201 ft | 7 kts | 28° |
| 2026-04-20 19:26 | 43.18425 | 0.00115 | 1199 ft | 8 kts | 19° |
| 2026-04-20 19:26 | 43.18472 | 0.00086 | 1198 ft | 8 kts | 302° |
| 2026-04-20 19:26 | 43.18489 | 0.00012 | 1198 ft | 8 kts | 285° |
| 2026-04-20 19:27 | 43.18505 | -0.00072 | 1198 ft | 10 kts | 284° |
| 2026-04-20 19:27 | 43.18519 | -0.00147 | 1198 ft | 6 kts | 283° |
| 2026-04-20 19:27 | 43.18529 | -0.00201 | 1198 ft | 6 kts | 284° |
| 2026-04-20 19:27 | 43.18537 | -0.00255 | 1199 ft | 6 kts | 272° |
| 2026-04-20 19:28 | 43.18520 | -0.00301 | 1200 ft | 6 kts | 218° |
| 2026-04-20 19:28 | 43.18495 | -0.00316 | 1201 ft | 0 kts | 201° |
| 2026-04-20 19:28 | 43.18473 | -0.00328 | 1202 ft | 24 kts | 201° |
| 2026-04-20 19:28 | 43.17978 | -0.00579 | 1219 ft | 125 kts | 200° |
| 2026-04-20 19:29 | 43.16953 | -0.01103 | 1606 ft | 176 kts | 201° |
| 2026-04-20 19:29 | 43.15797 | -0.01725 | 2914 ft | 167 kts | 202° |
| 2026-04-20 19:29 | 43.14695 | -0.02263 | 4210 ft | 176 kts | 197° |
| 2026-04-20 19:29 | 43.13446 | -0.02797 | 4714 ft | 205 kts | 197° |
| 2026-04-20 19:30 | 43.12002 | -0.03359 | 5292 ft | 225 kts | 191° |
| 2026-04-20 19:30 | 43.10358 | -0.03238 | 5915 ft | 254 kts | 159° |
| 2026-04-20 19:30 | 43.09011 | -0.01683 | 7048 ft | 256 kts | 122° |
| 2026-04-20 19:30 | 43.08539 | 0.00641 | 8142 ft | 263 kts | 88° |
| 2026-04-20 19:31 | 43.08965 | 0.03128 | 9073 ft | 268 kts | 69° |
| 2026-04-20 19:31 | 43.09522 | 0.05559 | 10044 ft | 279 kts | 75° |
| 2026-04-20 19:31 | 43.09888 | 0.08181 | 9975 ft | 284 kts | 81° |
| 2026-04-20 19:31 | 43.10171 | 0.10806 | 10102 ft | 277 kts | 81° |
| 2026-04-20 19:32 | 43.10488 | 0.13458 | 10390 ft | 282 kts | 73° |
| 2026-04-20 19:32 | 43.11265 | 0.15845 | 11550 ft | 274 kts | 58° |
| 2026-04-20 19:32 | 43.12180 | 0.18161 | 12657 ft | 278 kts | 59° |
| 2026-04-20 19:32 | 43.13073 | 0.20532 | 13712 ft | 283 kts | 59° |
| 2026-04-20 19:33 | 43.13978 | 0.22950 | 14693 ft | 287 kts | 57° |
| 2026-04-20 19:33 | 43.15268 | 0.24981 | 15659 ft | 282 kts | 28° |
| 2026-04-20 19:33 | 43.17070 | 0.25895 | 16659 ft | 278 kts | 2° |
| 2026-04-20 19:33 | 43.19039 | 0.25659 | 17053 ft | 298 kts | 339° |
| 2026-04-20 19:34 | 43.20972 | 0.24353 | 17311 ft | 324 kts | 327° |
| 2026-04-20 19:34 | 43.22979 | 0.22714 | 17801 ft | 344 kts | 327° |
| 2026-04-20 19:34 | 43.25064 | 0.21026 | 18700 ft | 349 kts | 327° |
| 2026-04-20 19:34 | 43.27172 | 0.19345 | 19651 ft | 352 kts | 327° |
| 2026-04-20 19:35 | 43.29303 | 0.17660 | 20550 ft | 357 kts | 328° |
| 2026-04-20 19:35 | 43.31498 | 0.16011 | 21409 ft | 364 kts | 334° |
| 2026-04-20 19:35 | 43.33994 | 0.15217 | 22262 ft | 375 kts | 353° |
| 2026-04-20 19:35 | 43.36621 | 0.15544 | 23158 ft | 385 kts | 9° |
| 2026-04-20 19:36 | 43.39236 | 0.16433 | 23904 ft | 391 kts | 10° |
| 2026-04-20 19:36 | 43.41894 | 0.17367 | 24556 ft | 397 kts | 10° |
| 2026-04-20 19:36 | 43.44587 | 0.18294 | 25240 ft | 401 kts | 9° |
| 2026-04-20 19:36 | 43.47275 | 0.19192 | 25910 ft | 405 kts | 9° |
| 2026-04-20 19:37 | 43.50063 | 0.20114 | 26588 ft | 409 kts | 10° |
| 2026-04-20 19:37 | 43.52704 | 0.21578 | 27153 ft | 425 kts | 29° |
| 2026-04-20 19:37 | 43.54934 | 0.24356 | 27821 ft | 439 kts | 48° |
| 2026-04-20 19:37 | 43.56466 | 0.28046 | 28462 ft | 449 kts | 64° |
| 2026-04-20 19:38 | 43.57679 | 0.32052 | 29034 ft | 454 kts | 64° |
| 2026-04-20 19:38 | 43.58899 | 0.36093 | 29505 ft | 460 kts | 64° |
| 2026-04-20 19:38 | 43.60164 | 0.40173 | 30003 ft | 464 kts | 64° |
| 2026-04-20 19:38 | 43.61462 | 0.44273 | 30463 ft | 467 kts | 63° |
| 2026-04-20 19:39 | 43.62779 | 0.48332 | 30921 ft | 469 kts | 61° |
| 2026-04-20 19:39 | 43.64310 | 0.52310 | 31337 ft | 470 kts | 57° |
| 2026-04-20 19:39 | 43.65977 | 0.56187 | 31741 ft | 472 kts | 56° |
| 2026-04-20 19:39 | 43.67696 | 0.60067 | 32118 ft | 474 kts | 55° |
| 2026-04-20 19:40 | 43.69421 | 0.63988 | 32481 ft | 477 kts | 56° |
| 2026-04-20 19:40 | 43.71123 | 0.67930 | 32842 ft | 480 kts | 56° |
| 2026-04-20 19:40 | 43.72812 | 0.71916 | 33289 ft | 480 kts | 57° |
| 2026-04-20 19:40 | 43.74478 | 0.75893 | 33843 ft | 477 kts | 57° |
| 2026-04-20 19:41 | 43.76138 | 0.79876 | 34299 ft | 476 kts | 57° |
| 2026-04-20 19:41 | 43.77790 | 0.83845 | 34665 ft | 476 kts | 57° |
| 2026-04-20 19:41 | 43.79446 | 0.87820 | 34994 ft | 477 kts | 57° |
| 2026-04-20 19:41 | 43.81081 | 0.91747 | 35357 ft | 477 kts | 57° |
| 2026-04-20 19:42 | 43.82740 | 0.95720 | 35735 ft | 476 kts | 56° |
| 2026-04-20 19:42 | 43.84459 | 0.99633 | 36091 ft | 475 kts | 55° |
| 2026-04-20 19:42 | 43.86223 | 1.03493 | 36424 ft | 475 kts | 54° |
| 2026-04-20 19:42 | 43.88010 | 1.07350 | 36772 ft | 475 kts | 54° |
| 2026-04-20 19:43 | 43.89796 | 1.11206 | 37129 ft | 475 kts | 54° |
| 2026-04-20 19:43 | 43.91573 | 1.15065 | 37462 ft | 475 kts | 54° |
| 2026-04-20 19:43 | 43.93344 | 1.18938 | 37781 ft | 475 kts | 54° |
| 2026-04-20 19:43 | 43.95109 | 1.22820 | 38105 ft | 475 kts | 54° |
| 2026-04-20 19:44 | 43.96867 | 1.26706 | 38430 ft | 475 kts | 54° |
| 2026-04-20 19:44 | 43.98622 | 1.30596 | 38706 ft | 475 kts | 54° |
| 2026-04-20 19:44 | 44.00377 | 1.34493 | 38949 ft | 475 kts | 54° |
| 2026-04-20 19:44 | 44.02128 | 1.38387 | 39221 ft | 475 kts | 55° |
| 2026-04-20 19:45 | 44.03877 | 1.42281 | 39476 ft | 474 kts | 55° |
| 2026-04-20 19:45 | 44.05623 | 1.46175 | 39714 ft | 475 kts | 55° |
| 2026-04-20 19:45 | 44.07371 | 1.50075 | 39932 ft | 475 kts | 55° |
| 2026-04-20 19:46 | 44.10885 | 1.57930 | 39944 ft | 479 kts | 55° |
| 2026-04-20 19:46 | 44.14391 | 1.65794 | 39932 ft | 474 kts | 55° |
| 2026-04-20 19:47 | 44.17835 | 1.73541 | 39949 ft | 472 kts | 55° |
| 2026-04-20 19:47 | 44.21282 | 1.81309 | 39953 ft | 470 kts | 55° |
| 2026-04-20 19:48 | 44.24714 | 1.89065 | 39951 ft | 470 kts | 55° |
| 2026-04-20 19:48 | 44.28148 | 1.96846 | 39956 ft | 470 kts | 55° |
| 2026-04-20 19:49 | 44.31569 | 2.04620 | 39969 ft | 470 kts | 55° |
| 2026-04-20 19:49 | 44.34999 | 2.12434 | 39975 ft | 472 kts | 55° |
| 2026-04-20 19:50 | 44.38422 | 2.20256 | 39991 ft | 473 kts | 55° |
| 2026-04-20 19:50 | 44.41856 | 2.28124 | 39995 ft | 474 kts | 55° |
| 2026-04-20 19:51 | 44.45295 | 2.36026 | 39998 ft | 476 kts | 55° |
| 2026-04-20 19:51 | 44.48713 | 2.43900 | 39997 ft | 476 kts | 55° |
| 2026-04-20 19:52 | 44.52153 | 2.51848 | 39997 ft | 477 kts | 55° |
| 2026-04-20 19:52 | 44.55597 | 2.59826 | 39986 ft | 477 kts | 55° |
| 2026-04-20 19:53 | 44.59027 | 2.67797 | 39999 ft | 477 kts | 55° |
| 2026-04-20 19:53 | 44.62451 | 2.75773 | 39988 ft | 477 kts | 55° |
| 2026-04-20 19:54 | 44.65849 | 2.83711 | 39997 ft | 476 kts | 55° |
| 2026-04-20 19:54 | 44.69252 | 2.91684 | 39997 ft | 476 kts | 55° |
| 2026-04-20 19:55 | 44.72653 | 2.99674 | 40000 ft | 475 kts | 55° |
| 2026-04-20 19:55 | 44.76043 | 3.07660 | 40007 ft | 475 kts | 55° |
| 2026-04-20 19:56 | 44.78855 | 3.14302 | 40010 ft | 475 kts | 55° |
| 2026-04-20 19:56 | 44.82800 | 3.23647 | 40008 ft | 474 kts | 55° |
| 2026-04-20 19:57 | 44.86163 | 3.31637 | 40016 ft | 474 kts | 55° |
| 2026-04-20 19:57 | 44.89501 | 3.39590 | 40016 ft | 474 kts | 55° |
| 2026-04-20 19:58 | 44.92860 | 3.47617 | 40017 ft | 474 kts | 56° |
| 2026-04-20 19:58 | 44.96209 | 3.55642 | 40021 ft | 474 kts | 56° |
| 2026-04-20 19:59 | 44.99554 | 3.63680 | 40006 ft | 474 kts | 56° |
| 2026-04-20 19:59 | 45.02891 | 3.71724 | 40029 ft | 474 kts | 56° |
| 2026-04-20 20:00 | 45.06230 | 3.79794 | 40018 ft | 475 kts | 56° |
| 2026-04-20 20:00 | 45.09539 | 3.87813 | 40021 ft | 475 kts | 56° |
| 2026-04-20 20:01 | 45.12863 | 3.95895 | 40030 ft | 475 kts | 56° |
| 2026-04-20 20:01 | 45.16186 | 4.03994 | 40030 ft | 475 kts | 56° |
| 2026-04-20 20:02 | 45.19595 | 4.12033 | 40033 ft | 473 kts | 50° |
| 2026-04-20 20:02 | 45.23546 | 4.19383 | 40049 ft | 470 kts | 47° |
| 2026-04-20 20:03 | 45.27574 | 4.26779 | 40054 ft | 471 kts | 48° |
| 2026-04-20 20:03 | 45.31498 | 4.34175 | 40048 ft | 472 kts | 49° |
| 2026-04-20 20:04 | 45.35491 | 4.41591 | 40053 ft | 471 kts | 46° |
| 2026-04-20 20:04 | 45.39689 | 4.48716 | 40051 ft | 470 kts | 45° |
| 2026-04-20 20:05 | 45.43203 | 4.54625 | 40051 ft | 470 kts | 45° |
| 2026-04-20 20:05 | 45.47400 | 4.61790 | 40051 ft | 471 kts | 46° |
| 2026-04-20 20:06 | 45.51580 | 4.69005 | 40041 ft | 471 kts | 46° |
| 2026-04-20 20:06 | 45.55748 | 4.76229 | 40029 ft | 471 kts | 46° |
| 2026-04-20 20:07 | 45.59916 | 4.83463 | 40027 ft | 471 kts | 46° |
| 2026-04-20 20:07 | 45.64070 | 4.90692 | 40023 ft | 471 kts | 46° |
| 2026-04-20 20:08 | 45.68202 | 4.97898 | 40022 ft | 471 kts | 46° |
| 2026-04-20 20:08 | 45.72274 | 5.05237 | 40003 ft | 476 kts | 55° |
| 2026-04-20 20:08 | 45.73527 | 5.09649 | 40050 ft | 483 kts | 75° |
| 2026-04-20 20:09 | 45.73880 | 5.14457 | 39996 ft | 489 kts | 93° |
| 2026-04-20 20:09 | 45.72611 | 5.24014 | 40012 ft | 490 kts | 102° |
| 2026-04-20 20:10 | 45.71174 | 5.33552 | 40015 ft | 490 kts | 101° |
| 2026-04-20 20:10 | 45.69814 | 5.43127 | 40009 ft | 491 kts | 101° |
| 2026-04-20 20:11 | 45.68503 | 5.52710 | 39984 ft | 490 kts | 95° |
| 2026-04-20 20:11 | 45.68621 | 5.57478 | 40007 ft | 484 kts | 75° |
| 2026-04-20 20:11 | 45.69642 | 5.62072 | 39982 ft | 478 kts | 60° |
| 2026-04-20 20:11 | 45.71367 | 5.66061 | 40013 ft | 468 kts | 45° |
| 2026-04-20 20:12 | 45.73472 | 5.69514 | 39998 ft | 466 kts | 43° |
| 2026-04-20 20:12 | 45.77831 | 5.76421 | 39982 ft | 468 kts | 43° |
| 2026-04-20 20:13 | 45.84294 | 5.86963 | 40027 ft | 470 kts | 44° |
| 2026-04-20 20:13 | 45.88585 | 5.94061 | 40023 ft | 471 kts | 44° |
| 2026-04-20 20:14 | 45.93067 | 6.00862 | 40025 ft | 467 kts | 37° |
| 2026-04-20 20:14 | 45.97940 | 6.07025 | 40037 ft | 466 kts | 36° |
| 2026-04-20 20:15 | 46.02802 | 6.13233 | 40030 ft | 468 kts | 37° |
| 2026-04-20 20:15 | 46.07626 | 6.19526 | 40024 ft | 468 kts | 37° |
| 2026-04-20 20:16 | 46.12431 | 6.25808 | 40028 ft | 466 kts | 37° |
| 2026-04-20 20:16 | 46.17246 | 6.32100 | 40017 ft | 466 kts | 37° |
| 2026-04-20 20:17 | 46.22017 | 6.38350 | 40020 ft | 465 kts | 37° |
| 2026-04-20 20:17 | 46.26800 | 6.44634 | 40009 ft | 465 kts | 37° |
| 2026-04-20 20:18 | 46.31589 | 6.50943 | 40012 ft | 465 kts | 37° |
| 2026-04-20 20:18 | 46.36362 | 6.57246 | 40007 ft | 465 kts | 37° |
| 2026-04-20 20:19 | 46.41133 | 6.63562 | 40013 ft | 464 kts | 37° |
| 2026-04-20 20:19 | 46.45787 | 6.70074 | 40007 ft | 468 kts | 45° |
| 2026-04-20 20:20 | 46.49833 | 6.77520 | 40019 ft | 469 kts | 47° |
| 2026-04-20 20:20 | 46.53871 | 6.84940 | 40027 ft | 468 kts | 46° |
| 2026-04-20 20:21 | 46.57969 | 6.92307 | 40029 ft | 468 kts | 46° |
| 2026-04-20 20:21 | 46.62056 | 6.99654 | 40040 ft | 467 kts | 46° |
| 2026-04-20 20:22 | 46.66110 | 7.06972 | 40037 ft | 467 kts | 46° |
| 2026-04-20 20:22 | 46.70192 | 7.14363 | 40046 ft | 466 kts | 46° |
| 2026-04-20 20:23 | 46.74255 | 7.21738 | 40048 ft | 467 kts | 46° |
| 2026-04-20 20:23 | 46.78315 | 7.29121 | 40042 ft | 467 kts | 46° |
| 2026-04-20 20:24 | 46.82368 | 7.36446 | 40049 ft | 466 kts | 46° |
| 2026-04-20 20:24 | 46.85911 | 7.42871 | 40050 ft | 467 kts | 47° |
| 2026-04-20 20:25 | 46.89940 | 7.50316 | 40048 ft | 467 kts | 47° |
| 2026-04-20 20:25 | 46.93960 | 7.57792 | 40058 ft | 467 kts | 47° |
| 2026-04-20 20:26 | 46.97977 | 7.65260 | 40050 ft | 467 kts | 47° |
| 2026-04-20 20:26 | 47.02001 | 7.72719 | 40047 ft | 466 kts | 47° |
| 2026-04-20 20:27 | 47.06045 | 7.80144 | 40046 ft | 466 kts | 47° |
| 2026-04-20 20:27 | 47.08072 | 7.83874 | 39872 ft | 469 kts | 47° |
| 2026-04-20 20:27 | 47.10118 | 7.87645 | 39284 ft | 473 kts | 47° |
| 2026-04-20 20:28 | 47.12159 | 7.91423 | 38676 ft | 472 kts | 47° |
| 2026-04-20 20:28 | 47.14163 | 7.95253 | 37852 ft | 474 kts | 51° |
| 2026-04-20 20:28 | 47.15939 | 7.99343 | 37173 ft | 474 kts | 54° |
| 2026-04-20 20:28 | 47.17617 | 8.03504 | 36415 ft | 473 kts | 54° |
| 2026-04-20 20:29 | 47.19317 | 8.07644 | 35654 ft | 472 kts | 54° |
| 2026-04-20 20:29 | 47.21041 | 8.11751 | 34813 ft | 473 kts | 53° |
| 2026-04-20 20:29 | 47.22768 | 8.15813 | 33930 ft | 474 kts | 52° |
| 2026-04-20 20:29 | 47.24528 | 8.19936 | 33080 ft | 473 kts | 52° |
| 2026-04-20 20:30 | 47.26259 | 8.24001 | 32432 ft | 467 kts | 52° |
| 2026-04-20 20:30 | 47.27974 | 8.28042 | 31795 ft | 463 kts | 52° |
| 2026-04-20 20:30 | 47.29675 | 8.32049 | 31170 ft | 457 kts | 51° |
| 2026-04-20 20:30 | 47.31521 | 8.35795 | 30546 ft | 446 kts | 43° |
| 2026-04-20 20:31 | 47.33569 | 8.39182 | 29950 ft | 440 kts | 41° |
| 2026-04-20 20:31 | 47.35626 | 8.42503 | 29254 ft | 435 kts | 40° |
| 2026-04-20 20:31 | 47.37649 | 8.45780 | 28643 ft | 429 kts | 40° |
| 2026-04-20 20:31 | 47.39632 | 8.49024 | 28029 ft | 424 kts | 40° |
| 2026-04-20 20:32 | 47.41587 | 8.52256 | 27440 ft | 419 kts | 40° |
| 2026-04-20 20:32 | 47.43512 | 8.55459 | 26814 ft | 415 kts | 40° |
| 2026-04-20 20:32 | 47.45419 | 8.58645 | 26214 ft | 412 kts | 40° |
| 2026-04-20 20:32 | 47.47309 | 8.61810 | 25614 ft | 409 kts | 40° |
| 2026-04-20 20:33 | 47.49183 | 8.64952 | 25027 ft | 406 kts | 39° |
| 2026-04-20 20:33 | 47.51045 | 8.68076 | 24437 ft | 404 kts | 39° |
| 2026-04-20 20:33 | 47.52898 | 8.71187 | 23858 ft | 401 kts | 39° |
| 2026-04-20 20:33 | 47.54743 | 8.74287 | 23167 ft | 400 kts | 39° |
| 2026-04-20 20:34 | 47.56572 | 8.77366 | 22530 ft | 397 kts | 39° |
| 2026-04-20 20:34 | 47.58347 | 8.80412 | 21927 ft | 396 kts | 44° |
| 2026-04-20 20:34 | 47.59637 | 8.84092 | 21351 ft | 411 kts | 68° |
| 2026-04-20 20:34 | 47.60283 | 8.88204 | 20733 ft | 411 kts | 73° |
| 2026-04-20 20:35 | 47.60873 | 8.92354 | 20089 ft | 409 kts | 73° |
| 2026-04-20 20:35 | 47.61465 | 8.96453 | 19488 ft | 405 kts | 73° |
| 2026-04-20 20:35 | 47.62071 | 9.00517 | 18898 ft | 402 kts | 73° |
| 2026-04-20 20:35 | 47.62681 | 9.04537 | 18319 ft | 398 kts | 73° |
| 2026-04-20 20:36 | 47.63290 | 9.08529 | 17649 ft | 395 kts | 73° |
| 2026-04-20 20:36 | 47.64001 | 9.12416 | 17026 ft | 385 kts | 62° |
| 2026-04-20 20:36 | 47.65432 | 9.15619 | 16511 ft | 365 kts | 39° |
| 2026-04-20 20:36 | 47.67386 | 9.17891 | 15895 ft | 351 kts | 24° |
| 2026-04-20 20:37 | 47.69588 | 9.19295 | 15286 ft | 339 kts | 9° |
| 2026-04-20 20:37 | 47.71863 | 9.19994 | 14725 ft | 332 kts | 5° |
| 2026-04-20 20:37 | 47.74125 | 9.20606 | 14148 ft | 329 kts | 5° |
| 2026-04-20 20:37 | 47.76368 | 9.21219 | 13542 ft | 326 kts | 6° |
| 2026-04-20 20:38 | 47.78556 | 9.21837 | 13349 ft | 311 kts | 6° |
| 2026-04-20 20:38 | 47.80636 | 9.22437 | 13172 ft | 298 kts | 6° |
| 2026-04-20 20:38 | 47.82622 | 9.23015 | 13040 ft | 284 kts | 6° |
| 2026-04-20 20:38 | 47.84493 | 9.23561 | 12920 ft | 272 kts | 6° |
| 2026-04-20 20:39 | 47.86344 | 9.23746 | 12821 ft | 255 kts | 344° |
| 2026-04-20 20:39 | 47.87914 | 9.22731 | 12414 ft | 249 kts | 317° |
| 2026-04-20 20:39 | 47.89001 | 9.20805 | 12097 ft | 242 kts | 296° |
| 2026-04-20 20:39 | 47.89489 | 9.18441 | 11770 ft | 239 kts | 275° |
| 2026-04-20 20:40 | 47.89299 | 9.16000 | 11439 ft | 239 kts | 252° |
| 2026-04-20 20:40 | 47.88454 | 9.13871 | 11119 ft | 242 kts | 230° |
| 2026-04-20 20:40 | 47.87115 | 9.12317 | 10778 ft | 247 kts | 209° |
| 2026-04-20 20:40 | 47.85402 | 9.11920 | 10316 ft | 262 kts | 171° |
| 2026-04-20 20:41 | 47.83732 | 9.13022 | 9991 ft | 265 kts | 152° |
| 2026-04-20 20:41 | 47.82161 | 9.14433 | 9562 ft | 266 kts | 151° |
| 2026-04-20 20:41 | 47.80538 | 9.15746 | 9168 ft | 264 kts | 157° |
| 2026-04-20 20:41 | 47.78834 | 9.16695 | 8841 ft | 260 kts | 166° |
| 2026-04-20 20:42 | 47.77063 | 9.17211 | 8479 ft | 258 kts | 176° |
| 2026-04-20 20:42 | 47.75287 | 9.17298 | 8169 ft | 254 kts | 184° |
| 2026-04-20 20:42 | 47.73548 | 9.17127 | 7839 ft | 251 kts | 180° |
| 2026-04-20 20:42 | 47.71832 | 9.17822 | 7381 ft | 257 kts | 162° |
| 2026-04-20 20:43 | 47.70065 | 9.18038 | 6974 ft | 255 kts | 189° |
| 2026-04-20 20:43 | 47.68329 | 9.17559 | 6625 ft | 253 kts | 191° |
| 2026-04-20 20:43 | 47.66627 | 9.17053 | 6489 ft | 244 kts | 192° |
| 2026-04-20 20:43 | 47.64993 | 9.16562 | 6350 ft | 235 kts | 186° |
| 2026-04-20 20:44 | 47.63448 | 9.16916 | 6188 ft | 225 kts | 153° |
| 2026-04-20 20:44 | 47.62125 | 9.18011 | 6126 ft | 215 kts | 149° |
| 2026-04-20 20:44 | 47.60857 | 9.19088 | 6046 ft | 205 kts | 148° |
| 2026-04-20 20:44 | 47.59644 | 9.20125 | 5914 ft | 198 kts | 148° |
| 2026-04-20 20:45 | 47.58447 | 9.21149 | 5758 ft | 198 kts | 148° |
| 2026-04-20 20:45 | 47.57383 | 9.22427 | 5503 ft | 195 kts | 117° |
| 2026-04-20 20:45 | 47.57212 | 9.24271 | 5409 ft | 180 kts | 72° |
| 2026-04-20 20:45 | 47.57734 | 9.25923 | 5167 ft | 176 kts | 66° |
| 2026-04-20 20:46 | 47.58200 | 9.27575 | 4951 ft | 171 kts | 67° |
| 2026-04-20 20:46 | 47.58696 | 9.29149 | 4722 ft | 166 kts | 63° |
| 2026-04-20 20:46 | 47.59225 | 9.30613 | 4510 ft | 162 kts | 61° |
| 2026-04-20 20:46 | 47.59792 | 9.32075 | 4260 ft | 162 kts | 60° |
| 2026-04-20 20:47 | 47.60333 | 9.33503 | 4041 ft | 156 kts | 60° |
| 2026-04-20 20:47 | 47.60857 | 9.34879 | 3814 ft | 151 kts | 60° |
| 2026-04-20 20:47 | 47.61381 | 9.36240 | 3611 ft | 151 kts | 60° |
| 2026-04-20 20:47 | 47.61897 | 9.37582 | 3398 ft | 148 kts | 59° |
| 2026-04-20 20:48 | 47.62386 | 9.38854 | 3192 ft | 137 kts | 59° |
| 2026-04-20 20:48 | 47.62842 | 9.40036 | 3028 ft | 126 kts | 59° |
| 2026-04-20 20:48 | 47.63254 | 9.41106 | 2851 ft | 119 kts | 59° |
| 2026-04-20 20:48 | 47.63673 | 9.42191 | 2648 ft | 121 kts | 58° |
| 2026-04-20 20:49 | 47.64095 | 9.43282 | 2488 ft | 124 kts | 59° |
| 2026-04-20 20:49 | 47.64527 | 9.44407 | 2290 ft | 126 kts | 59° |
| 2026-04-20 20:49 | 47.64958 | 9.45516 | 2104 ft | 122 kts | 58° |
| 2026-04-20 20:49 | 47.65240 | 9.46288 | 1997 ft | 129 kts | 60° |
| 2026-04-20 20:50 | 47.65692 | 9.47413 | 1788 ft | 126 kts | 58° |
| 2026-04-20 20:50 | 47.66114 | 9.48530 | 1578 ft | 123 kts | 59° |
| 2026-04-20 20:50 | 47.66545 | 9.49627 | 1451 ft | 127 kts | 60° |
| 2026-04-20 20:50 | 47.66972 | 9.50734 | 1353 ft | 114 kts | 60° |
| 2026-04-20 20:51 | 47.67272 | 9.51509 | 1365 ft | 55 kts | 60° |
| 2026-04-20 20:51 | 47.67380 | 9.51785 | 1367 ft | 21 kts | 59° |
| 2026-04-20 20:51 | 47.67449 | 9.51966 | 1369 ft | 17 kts | 60° |
| 2026-04-20 20:51 | 47.67467 | 9.52032 | 1371 ft | 4 kts | 88° |
| 2026-04-20 20:52 | 47.67431 | 9.52100 | 1372 ft | 10 kts | 148° |
| 2026-04-20 20:52 | 47.67379 | 9.52122 | 1373 ft | 5 kts | 187° |
| 2026-04-20 20:52 | 47.67348 | 9.52128 | 1371 ft | 3 kts | 143° |
| 2026-04-20 20:52 | 47.67345 | 9.52164 | 1373 ft | 5 kts | 82° |
| 2026-04-20 20:53 | 47.67360 | 9.52213 | 1371 ft | 6 kts | 62° |
| 2026-04-20 20:53 | 47.67378 | 9.52261 | 1373 ft | 5 kts | 61° |
| 2026-04-20 20:53 | 47.67396 | 9.52309 | 1372 ft | 5 kts | 59° |
| 2026-04-20 20:53 | 47.67411 | 9.52346 | 1375 ft | 3 kts | 59° |
| 2026-04-20 20:54 | 47.67408 | 9.52378 | 1376 ft | 3 kts | 115° |
| 2026-04-20 20:54 | 47.67395 | 9.52406 | 1373 ft | 3 kts | 135° |
| 2026-04-20 20:54 | 47.67377 | 9.52416 | 1375 ft | 3 kts | 179° |
| 2026-04-20 20:54 | 47.67368 | 9.52394 | 1373 ft | 3 kts | 268° |
| 2026-04-20 20:55 | 47.67368 | 9.52390 | 1373 ft | 0 kts | 270° |